Terminal Aerodrome Forecast
Issued by NWS

Home | Current Version | Previous Version | Text Only | Print | Product List | Glossary On
Versions: 1 2 3 4 5 6 7 8 9 10 11 12 13 14 15 16 17 18 19 20 21 22 23 24 25 26 27 28 29 30 31 32
836
FTUS45 KLKN 211802 RRA
TAFELY
TAF
KELY 211802Z 2118/2218 00000KT 3SM -SN SCT005 BKN020 OVC030
      TEMPO 2118/2119 3/4SM -SN OVC005
     FM211900 00000KT P6SM SCT015 OVC030
     FM212000 04006KT P6SM VCSH SCT025 OVC040
     FM220200 36005KT P6SM BKN035 OVC060
     FM220600 VRB03KT P6SM SCT008 SCT060 BKN100=

USA.gov is the U.S. government's official web portal to all federal, state and local government web resources and services.